createdAt,value
2022-08-04T00:02:10.513Z,90.98
2022-08-04T00:04:49.673Z,92.01
2022-08-04T00:07:44.497Z,92.36
2022-08-04T00:10:16.005Z,92.02
2022-08-04T00:12:47.345Z,92.95
2022-08-04T00:15:17.003Z,93.38
2022-08-04T00:18:07.688Z,93.31
2022-08-04T00:20:39.369Z,94.20
2022-08-04T00:23:07.910Z,94.20
2022-08-04T00:25:40.626Z,93.10
2022-08-04T00:28:07.612Z,94.27
2022-08-04T00:30:34.625Z,94.12
2022-08-04T00:33:02.545Z,94.36
2022-08-04T00:35:29.769Z,94.19
2022-08-04T00:37:57.347Z,94.31
2022-08-04T00:40:59.577Z,93.48
2022-08-04T00:43:34.719Z,93.53
2022-08-04T00:46:20.564Z,93.51
2022-08-04T00:49:24.965Z,92.81
2022-08-04T00:52:31.449Z,94.73
2022-08-04T00:55:18.870Z,95.08
2022-08-04T00:58:05.191Z,95.06
2022-08-04T01:00:44.460Z,93.42
2022-08-04T01:03:18.441Z,93.58
2022-08-04T01:05:48.417Z,94.46
2022-08-04T01:08:15.401Z,93.43
2022-08-04T01:11:19.962Z,92.94
2022-08-04T01:14:19.695Z,92.26
2022-08-04T01:17:03.507Z,92.20
2022-08-04T01:19:46.466Z,93.89
2022-08-04T01:22:31.843Z,94.11
2022-08-04T01:25:32.851Z,94.47
2022-08-04T01:28:30.118Z,94.27
2022-08-04T01:31:07.323Z,94.50
2022-08-04T01:34:03.646Z,94.41
2022-08-04T01:36:35.331Z,94.46
2022-08-04T01:39:24.949Z,94.44
2022-08-04T01:41:58.477Z,96.38
2022-08-04T01:44:31.585Z,97.40
2022-08-04T01:47:01.806Z,97.86
2022-08-04T01:49:40.530Z,97.19
2022-08-04T01:52:09.916Z,97.39
2022-08-04T01:54:41.955Z,96.37
2022-08-04T01:59:59.741Z,96.42
2022-08-04T02:02:27.121Z,96.74
2022-08-04T02:04:54.069Z,96.81
2022-08-04T02:07:32.634Z,97.00
2022-08-04T02:09:59.658Z,97.76
2022-08-04T02:13:03.635Z,97.88
2022-08-04T02:15:33.586Z,97.52
2022-08-04T02:18:04.669Z,97.69
2022-08-04T02:20:38.041Z,98.16
2022-08-04T02:23:09.767Z,98.07
2022-08-04T02:25:56.945Z,98.13
2022-08-04T02:28:46.605Z,99.40
2022-08-04T02:31:31.706Z,99.98
2022-08-04T02:34:08.818Z,99.22
2022-08-04T02:36:41.607Z,99.10
2022-08-04T02:39:11.095Z,99.09
2022-08-04T02:41:42.671Z,99.24
2022-08-04T02:44:10.576Z,98.49
2022-08-04T02:46:39.301Z,98.27
2022-08-04T02:49:09.335Z,98.51
2022-08-04T02:51:40.460Z,98.81
2022-08-04T02:54:08.166Z,98.95
2022-08-04T02:56:37.466Z,99.00
2022-08-04T02:59:07.391Z,99.90
2022-08-04T03:01:35.346Z,100.00
2022-08-04T03:04:24.382Z,100.00
2022-08-04T03:07:15.678Z,100.00
2022-08-04T03:10:10.653Z,100.00
2022-08-04T03:12:59.873Z,100.00
2022-08-04T03:15:26.656Z,100.00
2022-08-04T03:18:42.585Z,99.87
2022-08-04T03:21:18.773Z,100.00
2022-08-04T03:24:04.749Z,99.29
2022-08-04T03:26:37.309Z,99.47
2022-08-04T03:29:36.347Z,100.00
2022-08-04T03:32:12.991Z,99.38
2022-08-04T03:34:52.409Z,99.70
2022-08-04T03:37:39.087Z,99.57
2022-08-04T03:40:24.755Z,100.00
2022-08-04T03:43:03.741Z,99.50
2022-08-04T03:45:52.723Z,98.11
2022-08-04T03:48:51.750Z,98.38
2022-08-04T03:51:58.599Z,98.27
2022-08-04T03:54:47.024Z,98.68
2022-08-04T03:57:40.479Z,98.86
2022-08-04T04:00:09.231Z,98.30
2022-08-04T04:02:47.976Z,98.18
2022-08-04T04:06:00.226Z,98.30
2022-08-04T04:08:49.899Z,99.48
2022-08-04T04:11:35.265Z,99.00
2022-08-04T04:14:37.553Z,97.44
2022-08-04T04:17:45.693Z,96.26
2022-08-04T04:20:30.040Z,95.88
2022-08-04T04:23:42.059Z,95.40
2022-08-04T04:26:32.345Z,95.91
2022-08-04T04:29:26.858Z,95.93
2022-08-04T04:32:17.509Z,96.72
2022-08-04T04:35:15.786Z,95.98
2022-08-04T04:38:09.215Z,94.55
2022-08-04T04:40:45.418Z,94.38
2022-08-04T04:43:50.456Z,94.95
2022-08-04T04:46:46.993Z,95.50
2022-08-04T04:49:33.143Z,95.17
2022-08-04T04:52:09.002Z,95.66
2022-08-04T04:55:04.668Z,95.11
2022-08-04T04:57:53.328Z,94.88
2022-08-04T05:00:26.632Z,95.01
2022-08-04T05:03:23.370Z,93.21
2022-08-04T05:06:09.478Z,93.49
2022-08-04T05:08:59.844Z,91.19
2022-08-04T05:11:45.251Z,91.39
2022-08-04T05:14:41.148Z,90.75
2022-08-04T05:17:27.994Z,89.84
2022-08-04T05:20:07.445Z,88.83
2022-08-04T05:23:07.504Z,88.25
2022-08-04T05:25:50.127Z,88.00
2022-08-04T05:28:43.318Z,87.55
2022-08-04T05:31:20.091Z,86.52
2022-08-04T05:34:06.116Z,86.04
2022-08-04T05:36:57.734Z,85.51
2022-08-04T05:39:33.777Z,84.96
2022-08-04T05:42:04.356Z,84.74
2022-08-04T05:44:34.230Z,83.98
2022-08-04T05:47:02.769Z,83.10
2022-08-04T05:49:31.155Z,82.54
2022-08-04T05:52:03.908Z,81.96
2022-08-04T05:54:33.305Z,78.18
2022-08-04T05:57:02.973Z,64.57
2022-08-04T05:59:31.570Z,57.31
2022-08-04T06:02:01.531Z,52.46
2022-08-04T06:04:32.620Z,48.53
2022-08-04T06:06:59.760Z,46.80
2022-08-04T06:09:26.935Z,44.87
2022-08-04T06:12:03.859Z,44.33
2022-08-04T06:14:38.225Z,43.38
2022-08-04T06:18:32.397Z,43.14
2022-08-04T06:20:19.985Z,42.29
2022-08-04T06:22:47.220Z,42.22
2022-08-04T06:25:20.553Z,41.26
2022-08-04T06:27:49.252Z,40.59
2022-08-04T06:30:19.122Z,40.44
2022-08-04T06:32:49.925Z,39.89
2022-08-04T06:35:18.302Z,39.69
2022-08-04T06:37:47.741Z,40.21
2022-08-04T06:40:30.821Z,39.57
2022-08-04T06:43:04.793Z,40.63
2022-08-04T06:45:34.947Z,41.87
2022-08-04T06:48:05.113Z,41.79
2022-08-04T06:51:27.840Z,42.34
2022-08-04T06:53:23.246Z,41.70
2022-08-04T06:55:51.874Z,40.68
2022-08-04T06:58:21.077Z,40.49
2022-08-04T07:00:49.580Z,40.54
2022-08-04T07:03:18.833Z,40.42
2022-08-04T07:05:51.311Z,40.80
2022-08-04T07:08:19.947Z,39.66
2022-08-04T07:10:47.484Z,39.24
2022-08-04T07:13:16.015Z,39.71
2022-08-04T07:15:45.824Z,39.46
2022-08-04T07:18:13.086Z,40.19
2022-08-04T07:20:45.516Z,38.60
2022-08-04T07:23:17.786Z,39.84
2022-08-04T07:25:59.671Z,39.45
2022-08-04T07:28:39.461Z,38.60
2022-08-04T07:31:09.998Z,39.96
2022-08-04T07:33:38.308Z,39.44
2022-08-04T07:36:11.500Z,39.13
2022-08-04T07:38:50.804Z,39.24
2022-08-04T07:41:40.319Z,39.24
2022-08-04T07:44:08.822Z,39.21
2022-08-04T07:46:37.267Z,39.94
2022-08-04T07:49:05.553Z,40.47
2022-08-04T07:51:35.262Z,40.84
2022-08-04T07:54:05.036Z,39.94
2022-08-04T07:56:34.038Z,39.14
2022-08-04T07:59:02.022Z,39.99
2022-08-04T08:01:30.021Z,37.96
2022-08-04T08:03:59.856Z,40.54
2022-08-04T08:06:33.289Z,38.52
2022-08-04T08:09:14.525Z,39.90
2022-08-04T08:12:37.069Z,39.44
2022-08-04T08:14:32.059Z,39.62
2022-08-04T08:17:03.364Z,39.74
2022-08-04T08:19:31.799Z,39.21
2022-08-04T08:22:00.812Z,39.49
2022-08-04T08:24:35.596Z,40.13
2022-08-04T08:27:04.790Z,40.45
2022-08-04T08:29:35.107Z,39.89
2022-08-04T08:32:09.095Z,38.98
2022-08-04T08:34:38.600Z,39.16
2022-08-04T08:37:41.832Z,40.09
2022-08-04T08:40:39.941Z,40.13
2022-08-04T08:44:04.701Z,38.23
2022-08-04T08:46:53.723Z,38.10
2022-08-04T08:50:02.493Z,37.72
2022-08-04T08:52:57.516Z,38.08
2022-08-04T08:55:24.938Z,39.66
2022-08-04T08:58:17.048Z,38.52
2022-08-04T09:00:49.975Z,37.50
2022-08-04T09:04:02.390Z,37.80
2022-08-04T09:07:04.888Z,38.63
2022-08-04T09:10:02.793Z,39.40
2022-08-04T09:12:32.462Z,40.14
2022-08-04T09:15:05.894Z,40.26
2022-08-04T09:17:43.120Z,40.41
2022-08-04T09:20:22.191Z,39.94
2022-08-04T09:23:07.582Z,40.05
2022-08-04T09:25:41.281Z,40.07
2022-08-04T09:28:52.073Z,40.38
2022-08-04T09:31:48.959Z,40.78
2022-08-04T09:34:43.805Z,41.69
2022-08-04T09:37:45.701Z,41.60
2022-08-04T09:40:53.794Z,41.36
2022-08-04T09:44:42.718Z,41.41
2022-08-04T09:46:26.385Z,41.43
2022-08-04T09:49:03.225Z,42.28
2022-08-04T09:51:58.064Z,40.55
2022-08-04T09:54:53.998Z,41.35
2022-08-04T09:57:31.414Z,41.54
2022-08-04T10:00:40.576Z,41.76
2022-08-04T10:03:15.984Z,41.55
2022-08-04T10:06:18.180Z,41.15
2022-08-04T10:09:00.912Z,41.32
2022-08-04T10:11:54.762Z,41.29
2022-08-04T10:14:52.809Z,41.45
2022-08-04T10:17:52.216Z,41.07
2022-08-04T10:20:46.033Z,42.25
2022-08-04T10:23:32.017Z,42.47
2022-08-04T10:26:34.990Z,42.09
2022-08-04T10:29:12.738Z,42.71
2022-08-04T10:31:46.487Z,43.08
2022-08-04T10:34:20.235Z,43.73
2022-08-04T10:37:04.436Z,45.46
2022-08-04T10:40:21.042Z,43.92
2022-08-04T10:43:00.468Z,44.48
2022-08-04T10:45:36.354Z,44.37
2022-08-04T10:48:14.017Z,45.63
2022-08-04T10:50:49.108Z,44.67
2022-08-04T10:53:22.590Z,45.24
2022-08-04T10:56:06.298Z,46.27
2022-08-04T10:58:49.797Z,46.22
2022-08-04T11:02:00.794Z,45.77
2022-08-04T11:04:29.427Z,45.66
2022-08-04T11:06:59.445Z,46.66
2022-08-04T11:09:28.193Z,46.71
2022-08-04T11:12:02.378Z,45.14
2022-08-04T11:14:37.600Z,45.71
2022-08-04T11:17:11.199Z,46.53
2022-08-04T11:20:18.552Z,46.80
2022-08-04T11:23:13.094Z,46.14
2022-08-04T11:25:47.243Z,47.41
2022-08-04T11:29:03.303Z,46.81
2022-08-04T11:31:33.650Z,46.92
2022-08-04T11:34:10.460Z,46.62
2022-08-04T11:36:53.457Z,46.64
2022-08-04T11:39:34.192Z,46.18
2022-08-04T11:42:21.056Z,47.08
2022-08-04T11:44:51.284Z,46.42
2022-08-04T11:47:32.939Z,46.25
2022-08-04T11:50:09.753Z,46.29
2022-08-04T11:52:42.904Z,46.27
2022-08-04T11:55:13.521Z,45.93
2022-08-04T11:57:41.266Z,46.04
2022-08-04T12:00:12.797Z,46.67
2022-08-04T12:02:49.605Z,46.56
2022-08-04T12:05:37.153Z,46.72
2022-08-04T12:08:08.291Z,46.15
2022-08-04T12:11:13.563Z,46.19
2022-08-04T12:14:00.765Z,46.27
2022-08-04T12:16:42.156Z,45.64
2022-08-04T12:19:22.341Z,44.51
2022-08-04T12:21:55.949Z,46.22
2022-08-04T12:24:30.912Z,44.90
2022-08-04T12:27:04.859Z,45.48
2022-08-04T12:29:34.773Z,46.31
2022-08-04T12:32:13.420Z,46.28
2022-08-04T12:35:14.998Z,45.87
2022-08-04T12:38:05.100Z,47.04
2022-08-04T12:41:05.233Z,45.84
2022-08-04T12:43:38.989Z,45.63
2022-08-04T12:46:09.167Z,45.33
2022-08-04T12:48:39.408Z,44.82
2022-08-04T12:52:06.237Z,45.03
2022-08-04T12:53:58.039Z,44.42
2022-08-04T12:56:29.733Z,45.26
2022-08-04T12:59:06.762Z,44.55
2022-08-04T13:02:09.815Z,45.12
2022-08-04T13:04:34.797Z,45.50
2022-08-04T13:07:09.922Z,46.27
2022-08-04T13:09:38.131Z,45.45
2022-08-04T13:12:15.339Z,44.88
2022-08-04T13:14:46.080Z,44.59
2022-08-04T13:19:47.447Z,44.36
2022-08-04T13:22:28.297Z,45.78
2022-08-04T13:26:38.828Z,46.42
2022-08-04T13:27:55.385Z,45.64
2022-08-04T13:30:27.386Z,45.68
2022-08-04T13:32:59.381Z,45.72
2022-08-04T13:35:54.643Z,44.55
2022-08-04T13:38:17.959Z,44.31
2022-08-04T13:40:46.017Z,44.48
2022-08-04T13:44:15.640Z,45.94
2022-08-04T13:46:28.104Z,44.93
2022-08-04T13:49:25.978Z,44.92
2022-08-04T13:51:59.099Z,44.96
2022-08-04T13:54:44.429Z,45.09
2022-08-04T13:57:17.514Z,44.47
2022-08-04T13:59:53.101Z,45.34
2022-08-04T14:02:39.059Z,46.04
2022-08-04T14:05:18.326Z,46.74
2022-08-04T14:08:14.515Z,45.69
2022-08-04T14:10:41.871Z,45.83
2022-08-04T14:13:09.479Z,44.80
2022-08-04T14:16:01.073Z,45.12
2022-08-04T14:18:32.777Z,44.99
2022-08-04T14:21:13.620Z,45.59
2022-08-04T14:23:55.127Z,44.67
2022-08-04T14:26:32.424Z,44.94
2022-08-04T14:29:26.789Z,45.51
2022-08-04T14:32:01.996Z,45.49
2022-08-04T14:34:30.864Z,45.95
2022-08-04T14:37:17.039Z,46.70
2022-08-04T14:40:17.368Z,47.16
2022-08-04T14:42:55.619Z,46.42
2022-08-04T14:45:31.756Z,47.43
2022-08-04T14:47:59.409Z,47.12
2022-08-04T14:50:36.929Z,47.41
2022-08-04T14:53:08.539Z,46.48
2022-08-04T14:55:37.263Z,47.12
2022-08-04T14:58:35.798Z,47.17
2022-08-04T15:00:56.085Z,46.25
2022-08-04T15:03:24.536Z,47.15
2022-08-04T15:06:00.792Z,46.54
2022-08-04T15:08:31.921Z,47.29
2022-08-04T15:11:03.220Z,46.47
2022-08-04T15:13:33.556Z,47.21
2022-08-04T15:16:07.819Z,46.99
2022-08-04T15:18:39.406Z,47.13
2022-08-04T15:21:07.984Z,46.91
2022-08-04T15:23:39.747Z,47.42
2022-08-04T15:26:12.937Z,47.46
2022-08-04T15:28:46.139Z,46.49
2022-08-04T15:32:05.381Z,46.97
2022-08-04T15:34:03.040Z,47.01
2022-08-04T15:36:43.411Z,47.83
2022-08-04T15:39:33.720Z,47.69
2022-08-04T15:42:17.536Z,48.23
2022-08-04T15:44:53.912Z,48.39
2022-08-04T15:47:27.331Z,48.23
2022-08-04T15:50:07.620Z,47.65
2022-08-04T15:53:00.989Z,48.25
2022-08-04T15:55:43.954Z,48.67
2022-08-04T15:58:16.921Z,48.48
2022-08-04T16:00:50.018Z,49.07
2022-08-04T16:03:58.180Z,49.14
2022-08-04T16:06:23.097Z,49.50
2022-08-04T16:09:03.080Z,49.22
2022-08-04T16:11:32.211Z,49.47
2022-08-04T16:14:01.981Z,49.79
2022-08-04T16:16:38.510Z,49.64
2022-08-04T16:19:08.299Z,49.88
2022-08-04T16:21:57.188Z,49.96
2022-08-04T16:24:35.209Z,49.68
2022-08-04T16:27:07.518Z,50.62
2022-08-04T16:29:38.407Z,50.73
2022-08-04T16:32:05.626Z,50.65
2022-08-04T16:34:50.316Z,51.44
2022-08-04T16:37:23.562Z,50.78
2022-08-04T16:40:10.385Z,51.63
2022-08-04T16:42:37.562Z,51.52
2022-08-04T16:45:07.487Z,52.06
2022-08-04T16:47:49.838Z,51.24
2022-08-04T16:50:22.061Z,51.29
2022-08-04T16:52:54.708Z,51.52
2022-08-04T16:55:28.025Z,51.10
2022-08-04T16:58:01.120Z,51.11
2022-08-04T17:00:31.736Z,50.92
2022-08-04T17:03:03.107Z,51.89
2022-08-04T17:05:39.774Z,51.07
2022-08-04T17:10:55.717Z,52.08
2022-08-04T17:14:02.055Z,52.67
2022-08-04T17:16:21.104Z,52.63
2022-08-04T17:18:50.351Z,52.35
2022-08-04T17:21:30.003Z,52.68
2022-08-04T17:24:13.410Z,52.47
2022-08-04T17:26:53.709Z,53.16
2022-08-04T17:29:43.248Z,53.18
2022-08-04T17:32:16.866Z,53.33
2022-08-04T17:34:49.597Z,53.79
2022-08-04T17:37:40.523Z,53.32
2022-08-04T17:40:10.373Z,54.09
2022-08-04T17:42:39.994Z,54.60
2022-08-04T17:45:49.372Z,54.39
2022-08-04T17:47:59.703Z,54.62
2022-08-04T17:50:34.787Z,54.87
2022-08-04T17:53:12.170Z,55.44
2022-08-04T17:55:49.502Z,55.45
2022-08-04T17:58:21.936Z,55.96
2022-08-04T18:01:23.823Z,56.22
2022-08-04T18:03:51.599Z,56.73
2022-08-04T18:06:19.828Z,57.05
2022-08-04T18:08:54.874Z,57.36
2022-08-04T18:11:29.778Z,58.02
2022-08-04T18:14:10.229Z,58.15
2022-08-04T18:16:44.877Z,58.51
2022-08-04T18:19:13.626Z,58.89
2022-08-04T18:21:46.758Z,58.92
2022-08-04T18:24:35.170Z,59.51
2022-08-04T18:27:17.911Z,59.65
2022-08-04T18:30:14.609Z,60.46
2022-08-04T18:32:33.415Z,60.95
2022-08-04T18:35:05.151Z,60.86
2022-08-04T18:40:29.937Z,61.36
2022-08-04T18:43:03.616Z,61.60
2022-08-04T18:45:34.620Z,61.19
2022-08-04T18:48:04.309Z,61.38
2022-08-04T18:51:11.323Z,61.67
2022-08-04T18:53:35.102Z,61.66
2022-08-04T18:56:06.366Z,62.08
2022-08-04T18:58:43.035Z,62.53
2022-08-04T19:01:14.198Z,63.04
2022-08-04T19:03:49.439Z,62.53
2022-08-04T19:06:25.800Z,63.01
2022-08-04T19:08:53.143Z,63.25
2022-08-04T19:11:38.046Z,63.76
2022-08-04T19:14:07.640Z,63.05
2022-08-04T19:16:40.862Z,63.28
2022-08-04T19:19:12.792Z,63.67
2022-08-04T19:22:00.726Z,63.24
2022-08-04T19:24:32.460Z,63.65
2022-08-04T19:27:07.049Z,63.74
2022-08-04T19:29:40.808Z,63.60
2022-08-04T19:32:15.001Z,63.69
2022-08-04T19:34:46.309Z,64.51
2022-08-04T19:37:57.410Z,63.32
2022-08-04T19:40:09.620Z,63.97
2022-08-04T19:42:37.876Z,63.56
2022-08-04T19:45:06.848Z,63.37
2022-08-04T19:48:17.145Z,63.38
2022-08-04T19:50:23.637Z,63.58
2022-08-04T19:52:53.994Z,63.49
2022-08-04T19:55:36.884Z,63.37
2022-08-04T19:58:11.863Z,63.46
2022-08-04T20:04:10.041Z,63.45
2022-08-04T20:06:16.554Z,63.44
2022-08-04T20:08:48.252Z,63.78
2022-08-04T20:11:18.542Z,63.26
2022-08-04T20:13:54.248Z,63.41
2022-08-04T20:16:30.085Z,63.28
2022-08-04T20:19:03.124Z,64.00
2022-08-04T20:21:53.780Z,64.04
2022-08-04T20:24:39.068Z,64.47
2022-08-04T20:27:11.517Z,65.49
2022-08-04T20:29:46.072Z,65.51
2022-08-04T20:32:22.271Z,65.54
2022-08-04T20:34:54.512Z,65.64
2022-08-04T20:37:25.748Z,65.46
2022-08-04T20:40:12.661Z,65.43
2022-08-04T20:42:45.009Z,65.92
2022-08-04T20:45:16.274Z,66.30
2022-08-04T20:47:53.363Z,66.36
2022-08-04T20:50:29.925Z,65.78
2022-08-04T20:52:58.353Z,66.51
2022-08-04T20:55:29.818Z,66.31
2022-08-04T20:58:03.155Z,66.46
2022-08-04T21:00:31.887Z,66.54
2022-08-04T21:02:59.952Z,66.57
2022-08-04T21:05:27.557Z,66.74
2022-08-04T21:07:57.087Z,67.25
2022-08-04T21:10:27.877Z,67.25
2022-08-04T21:12:55.455Z,67.49
2022-08-04T21:15:50.717Z,67.92
2022-08-04T21:18:13.946Z,68.39
2022-08-04T21:20:43.171Z,68.15
2022-08-04T21:23:10.515Z,68.46
2022-08-04T21:25:42.582Z,68.66
2022-08-04T21:28:11.220Z,68.79
2022-08-04T21:30:54.344Z,68.89
2022-08-04T21:33:50.059Z,69.17
2022-08-04T21:36:12.482Z,69.47
2022-08-04T21:38:39.581Z,69.73
2022-08-04T21:41:09.418Z,69.72
2022-08-04T21:43:42.624Z,69.92
2022-08-04T21:46:11.500Z,70.44
2022-08-04T21:48:39.347Z,70.20
2022-08-04T21:51:58.973Z,70.68
2022-08-04T21:54:04.168Z,70.56
2022-08-04T21:56:33.660Z,71.06
2022-08-04T21:59:02.617Z,70.76
2022-08-04T22:01:52.332Z,70.94
2022-08-04T22:04:20.209Z,71.82
2022-08-04T22:06:52.575Z,71.76
2022-08-04T22:09:22.370Z,71.49
2022-08-04T22:11:52.024Z,71.13
2022-08-04T22:14:27.361Z,71.63
2022-08-04T22:16:57.758Z,72.33
2022-08-04T22:19:49.792Z,71.94
2022-08-04T22:22:13.507Z,72.29
2022-08-04T22:24:51.890Z,72.64
2022-08-04T22:27:37.421Z,72.33
2022-08-04T22:30:17.300Z,72.49
2022-08-04T22:32:47.099Z,72.98
2022-08-04T22:35:42.938Z,72.78
2022-08-04T22:38:06.086Z,72.74
2022-08-04T22:40:38.487Z,73.26
2022-08-04T22:43:22.599Z,73.42
2022-08-04T22:45:52.596Z,72.66
2022-08-04T22:48:19.707Z,72.88
2022-08-04T22:50:46.778Z,72.57
2022-08-04T22:53:17.968Z,72.76
2022-08-04T22:56:07.339Z,73.00
2022-08-04T22:58:32.615Z,73.00
2022-08-04T23:00:59.878Z,72.89
2022-08-04T23:03:36.836Z,72.59
2022-08-04T23:06:11.768Z,72.58
2022-08-04T23:08:43.034Z,72.95
2022-08-04T23:11:13.963Z,72.70
2022-08-04T23:13:42.022Z,72.61
2022-08-04T23:16:10.371Z,72.26
2022-08-04T23:18:40.049Z,72.73
2022-08-04T23:21:09.817Z,72.88
2022-08-04T23:23:38.151Z,72.92
2022-08-04T23:26:14.356Z,72.78
2022-08-04T23:28:42.470Z,72.90
2022-08-04T23:31:10.039Z,72.86
2022-08-04T23:33:49.271Z,72.97
2022-08-04T23:36:29.681Z,72.90
2022-08-04T23:39:04.055Z,73.03
2022-08-04T23:41:53.479Z,72.94
2022-08-04T23:44:25.417Z,72.70
2022-08-04T23:47:04.490Z,73.25
2022-08-04T23:49:43.725Z,72.94
2022-08-04T23:52:15.750Z,73.06
2022-08-04T23:54:54.622Z,72.71
2022-08-04T23:57:22.304Z,72.67
2022-08-04T23:59:54.258Z,72.87
